Time;durP1;ratioP1;P1;durP2;ratioP2;P2;SDS_P1;SDS_P2;PMS_P1;PMS_P2;Temp;Humidity;BMP_temperature;BMP_pressure;BME280_temperature;BME280_humidity;BME280_pressure;Samples;Min_cycle;Max_cycle;Signal;HPM_P1;HPM_P2
2024/01/08 00:01:12;;;;;;;2.67;2.10;;;;;;;;;;5106974;27;42211;-69
2024/01/08 00:03:40;;;;;;;3.45;2.50;;;;;;;;;;5105535;27;40640;-69
2024/01/08 00:06:08;;;;;;;2.97;2.67;;;;;;;;;;5107966;27;41784;-69
2024/01/08 00:08:36;;;;;;;4.13;2.00;;;;;;;;;;5116721;27;42921;-69
2024/01/08 00:11:05;;;;;;;2.53;2.20;;;;;;;;;;5106272;27;41190;-69
2024/01/08 00:13:33;;;;;;;2.40;2.00;;;;;;;;;;5127283;27;41596;-70
2024/01/08 00:16:01;;;;;;;3.67;2.20;;;;;;;;;;5112757;27;42277;-69
2024/01/08 00:18:29;;;;;;;4.68;2.28;;;;;;;;;;5111800;27;40334;-69
2024/01/08 00:20:59;;;;;;;2.78;2.35;;;;;;;;;;5105378;27;41648;-69
2024/01/08 00:23:27;;;;;;;3.75;2.53;;;;;;;;;;5108549;27;40034;-69
2024/01/08 00:25:55;;;;;;;2.67;2.22;;;;;;;;;;5125194;27;41332;-70
2024/01/08 00:28:25;;;;;;;3.10;2.15;;;;;;;;;;5090918;27;43076;-69
2024/01/08 00:30:53;;;;;;;2.33;2.03;;;;;;;;;;5096375;27;39878;-69
2024/01/08 00:33:21;;;;;;;2.85;2.03;;;;;;;;;;5105484;27;41571;-69
2024/01/08 00:35:51;;;;;;;3.03;2.17;;;;;;;;;;5108926;27;43243;-70
2024/01/08 00:38:19;;;;;;;2.78;2.30;;;;;;;;;;5104958;27;39969;-69
2024/01/08 00:40:47;;;;;;;2.58;2.15;;;;;;;;;;5109274;27;42541;-70
2024/01/08 00:43:16;;;;;;;2.05;1.85;;;;;;;;;;5106091;27;41215;-70
2024/01/08 00:45:45;;;;;;;2.25;2.00;;;;;;;;;;5103861;27;42609;-69
2024/01/08 00:48:13;;;;;;;2.47;2.22;;;;;;;;;;5106641;27;42163;-70
2024/01/08 00:50:41;;;;;;;2.67;2.03;;;;;;;;;;5104132;27;41170;-69
2024/01/08 00:53:09;;;;;;;3.00;2.10;;;;;;;;;;5101993;27;41647;-69
2024/01/08 00:55:37;;;;;;;2.50;2.00;;;;;;;;;;5102064;27;42161;-70
2024/01/08 00:58:05;;;;;;;2.70;1.95;;;;;;;;;;5113682;27;41448;-69
2024/01/08 01:00:33;;;;;;;2.72;2.17;;;;;;;;;;5109556;27;41255;-69
2024/01/08 01:03:02;;;;;;;3.42;2.13;;;;;;;;;;5101611;27;40642;-70
2024/01/08 01:05:31;;;;;;;2.67;2.25;;;;;;;;;;5105354;27;41755;-69
2024/01/08 01:07:59;;;;;;;2.50;2.30;;;;;;;;;;5091818;27;41758;-69
2024/01/08 01:10:27;;;;;;;3.58;2.10;;;;;;;;;;5114924;27;41331;-70
2024/01/08 01:12:55;;;;;;;2.50;2.30;;;;;;;;;;5113652;27;42204;-69
2024/01/08 01:15:23;;;;;;;2.10;1.90;;;;;;;;;;5118850;27;42122;-70
2024/01/08 01:17:51;;;;;;;2.63;1.85;;;;;;;;;;5124569;27;41428;-69
2024/01/08 01:20:20;;;;;;;2.50;1.95;;;;;;;;;;5121076;27;41059;-69
2024/01/08 01:22:48;;;;;;;2.28;2.00;;;;;;;;;;5113614;27;42050;-69
2024/01/08 01:25:16;;;;;;;3.05;2.03;;;;;;;;;;5115664;27;41427;-69
2024/01/08 01:27:45;;;;;;;3.08;2.08;;;;;;;;;;5114428;27;41944;-70
2024/01/08 01:30:13;;;;;;;3.00;2.42;;;;;;;;;;5109847;27;39946;-71
2024/01/08 01:32:41;;;;;;;2.80;1.95;;;;;;;;;;5119001;27;41771;-70
2024/01/08 01:35:09;;;;;;;1.95;1.75;;;;;;;;;;5106595;27;41388;-71
2024/01/08 01:37:41;;;;;;;2.80;1.95;;;;;;;;;;5108332;27;41067;-70
2024/01/08 01:40:10;;;;;;;5.78;2.22;;;;;;;;;;5114500;27;41678;-70
2024/01/08 01:42:37;;;;;;;2.45;1.60;;;;;;;;;;5114990;27;42618;-70
2024/01/08 01:45:06;;;;;;;2.60;2.00;;;;;;;;;;5124117;27;40036;-70
2024/01/08 01:47:34;;;;;;;2.65;2.35;;;;;;;;;;5124723;27;42153;-70
2024/01/08 01:50:02;;;;;;;2.63;1.80;;;;;;;;;;5123797;27;40338;-70
2024/01/08 01:52:30;;;;;;;2.90;2.13;;;;;;;;;;5114527;27;41561;-70
2024/01/08 01:54:59;;;;;;;2.55;2.35;;;;;;;;;;5122294;27;43039;-70
2024/01/08 01:57:27;;;;;;;2.55;2.28;;;;;;;;;;5121279;27;40027;-70
2024/01/08 01:59:55;;;;;;;3.67;2.10;;;;;;;;;;5089968;27;40684;-70
2024/01/08 02:02:27;;;;;;;2.45;1.90;;;;;;;;;;5105147;27;42519;-76
2024/01/08 02:04:55;;;;;;;2.10;1.90;;;;;;;;;;5110080;27;40329;-76
2024/01/08 02:07:24;;;;;;;2.53;2.05;;;;;;;;;;5130050;27;42048;-70
2024/01/08 02:09:51;;;;;;;2.88;2.20;;;;;;;;;;5109448;27;41406;-70
2024/01/08 02:12:21;;;;;;;2.60;2.08;;;;;;;;;;5120413;27;41766;-70
2024/01/08 02:14:49;;;;;;;2.50;2.30;;;;;;;;;;5118210;27;43076;-70
2024/01/08 02:17:17;;;;;;;1.90;1.70;;;;;;;;;;5099285;27;40208;-68
2024/01/08 02:19:45;;;;;;;2.45;2.08;;;;;;;;;;5119590;27;42472;-68
2024/01/08 02:22:13;;;;;;;3.35;1.83;;;;;;;;;;5086509;28;40443;-68
2024/01/08 02:24:42;;;;;;;2.72;2.28;;;;;;;;;;5107020;27;41134;-70
2024/01/08 02:27:10;;;;;;;3.35;2.25;;;;;;;;;;5107613;27;42470;-70
2024/01/08 02:29:38;;;;;;;3.38;2.30;;;;;;;;;;5106786;27;43019;-70
2024/01/08 02:32:07;;;;;;;1.88;1.67;;;;;;;;;;5109395;27;41176;-70
2024/01/08 02:34:35;;;;;;;2.63;2.30;;;;;;;;;;5102838;27;42100;-70
2024/01/08 02:37:03;;;;;;;2.30;1.83;;;;;;;;;;5099706;27;40619;-70
2024/01/08 02:39:31;;;;;;;1.70;1.60;;;;;;;;;;5107520;27;42619;-70
2024/01/08 02:42:00;;;;;;;4.43;2.05;;;;;;;;;;5106986;27;42246;-70
2024/01/08 02:44:28;;;;;;;2.80;2.38;;;;;;;;;;5110671;27;40284;-70
2024/01/08 02:46:56;;;;;;;2.97;2.15;;;;;;;;;;5110736;27;42540;-70
2024/01/08 02:49:25;;;;;;;3.08;2.53;;;;;;;;;;5116493;27;42635;-70
2024/01/08 02:51:53;;;;;;;2.75;1.70;;;;;;;;;;5107508;27;41689;-70
2024/01/08 02:54:21;;;;;;;2.72;2.00;;;;;;;;;;5107203;27;42812;-70
2024/01/08 02:56:50;;;;;;;2.28;1.83;;;;;;;;;;5114898;27;40969;-68
2024/01/08 02:59:20;;;;;;;2.65;2.00;;;;;;;;;;5107572;27;41340;-68
2024/01/08 03:01:48;;;;;;;3.58;2.13;;;;;;;;;;5108921;27;42107;-70
2024/01/08 03:04:16;;;;;;;2.20;1.80;;;;;;;;;;5095721;27;40066;-68
2024/01/08 03:06:44;;;;;;;2.03;1.83;;;;;;;;;;5118221;27;41407;-68
2024/01/08 03:09:12;;;;;;;3.03;2.28;;;;;;;;;;5108847;27;41980;-68
2024/01/08 03:11:40;;;;;;;2.85;2.45;;;;;;;;;;5105784;27;40025;-73
2024/01/08 03:14:08;;;;;;;2.55;2.15;;;;;;;;;;5110925;27;42841;-73
2024/01/08 03:16:37;;;;;;;2.88;2.13;;;;;;;;;;5093138;27;40571;-72
2024/01/08 03:19:05;;;;;;;3.38;2.40;;;;;;;;;;5110081;27;41668;-74
2024/01/08 03:21:33;;;;;;;2.42;2.03;;;;;;;;;;5113322;27;42072;-74
2024/01/08 03:24:01;;;;;;;2.33;2.10;;;;;;;;;;5106691;27;41315;-73
2024/01/08 03:26:29;;;;;;;2.22;1.88;;;;;;;;;;5111526;27;41344;-74
2024/01/08 03:28:57;;;;;;;2.10;1.90;;;;;;;;;;5103424;27;42044;-74
2024/01/08 03:31:25;;;;;;;2.63;2.15;;;;;;;;;;5097396;27;40116;-74
2024/01/08 03:33:55;;;;;;;2.35;1.98;;;;;;;;;;5100028;27;42592;-74
2024/01/08 03:36:23;;;;;;;3.10;2.40;;;;;;;;;;5109076;27;40564;-74
2024/01/08 03:38:51;;;;;;;2.25;1.83;;;;;;;;;;5121973;27;41605;-74
2024/01/08 03:41:19;;;;;;;2.25;1.83;;;;;;;;;;5107581;27;43134;-74
2024/01/08 03:43:47;;;;;;;2.00;1.77;;;;;;;;;;5110462;27;40466;-74
2024/01/08 03:46:15;;;;;;;3.25;1.95;;;;;;;;;;5115222;27;42305;-74
2024/01/08 03:48:43;;;;;;;2.50;2.13;;;;;;;;;;5105215;27;41483;-74
2024/01/08 03:51:12;;;;;;;2.58;1.60;;;;;;;;;;5102280;27;39905;-74
2024/01/08 03:53:40;;;;;;;2.97;2.30;;;;;;;;;;5109264;27;41643;-74
2024/01/08 03:56:08;;;;;;;3.15;2.38;;;;;;;;;;5105845;27;43313;-68
2024/01/08 03:58:37;;;;;;;3.72;2.03;;;;;;;;;;5110202;27;41901;-68
2024/01/08 04:01:05;;;;;;;5.28;2.33;;;;;;;;;;5093577;27;40650;-68
2024/01/08 04:03:33;;;;;;;2.67;2.20;;;;;;;;;;5126802;27;40439;-68
2024/01/08 04:06:01;;;;;;;2.97;2.25;;;;;;;;;;5109716;27;41279;-68
2024/01/08 04:08:30;;;;;;;2.63;1.80;;;;;;;;;;5114570;27;42726;-68
2024/01/08 04:10:58;;;;;;;1.95;1.75;;;;;;;;;;5107345;27;41446;-68
2024/01/08 04:13:26;;;;;;;3.92;2.33;;;;;;;;;;5115341;27;41538;-68
2024/01/08 04:15:54;;;;;;;3.30;2.40;;;;;;;;;;5096680;27;41017;-68
2024/01/08 04:18:22;;;;;;;2.80;2.13;;;;;;;;;;5111103;27;41159;-68
2024/01/08 04:20:50;;;;;;;3.25;2.22;;;;;;;;;;5109133;27;42026;-69
2024/01/08 04:23:18;;;;;;;3.60;2.30;;;;;;;;;;5100848;27;41089;-68
2024/01/08 04:25:48;;;;;;;2.58;1.95;;;;;;;;;;5121786;27;42180;-68
2024/01/08 04:28:16;;;;;;;3.50;2.50;;;;;;;;;;5110247;27;41513;-68
2024/01/08 04:30:44;;;;;;;2.80;2.42;;;;;;;;;;5119885;27;41406;-70
2024/01/08 04:33:12;;;;;;;2.80;2.22;;;;;;;;;;5105969;27;41314;-68
2024/01/08 04:35:40;;;;;;;4.20;2.17;;;;;;;;;;5105569;27;41908;-68
2024/01/08 04:38:08;;;;;;;2.97;2.47;;;;;;;;;;5111639;27;39837;-72
2024/01/08 04:40:36;;;;;;;4.10;2.70;;;;;;;;;;5101452;27;42827;-72
2024/01/08 04:43:05;;;;;;;3.33;2.35;;;;;;;;;;5095232;27;39946;-73
2024/01/08 04:45:33;;;;;;;3.80;2.70;;;;;;;;;;5101704;27;42727;-73
2024/01/08 04:48:03;;;;;;;3.53;2.78;;;;;;;;;;5115735;27;42934;-72
2024/01/08 04:50:31;;;;;;;3.80;2.30;;;;;;;;;;5107812;27;39912;-72
2024/01/08 04:52:59;;;;;;;2.45;2.05;;;;;;;;;;5118154;27;41592;-72
2024/01/08 04:55:27;;;;;;;5.25;2.67;;;;;;;;;;5119215;27;42573;-72
2024/01/08 04:57:55;;;;;;;3.90;2.67;;;;;;;;;;5124011;27;41262;-73
2024/01/08 05:00:24;;;;;;;3.17;2.50;;;;;;;;;;5122670;27;41612;-73
2024/01/08 05:02:52;;;;;;;3.05;2.30;;;;;;;;;;5125190;27;41296;-73
2024/01/08 05:05:21;;;;;;;2.80;2.40;;;;;;;;;;5117000;27;42374;-72
2024/01/08 05:07:49;;;;;;;2.88;2.55;;;;;;;;;;5110224;27;43117;-72
2024/01/08 05:10:18;;;;;;;3.22;2.50;;;;;;;;;;5093753;28;38850;-73
2024/01/08 05:12:46;;;;;;;2.95;2.65;;;;;;;;;;5117109;27;42384;-72
2024/01/08 05:15:14;;;;;;;2.60;2.17;;;;;;;;;;5100588;27;41419;-72
2024/01/08 05:17:43;;;;;;;3.50;2.63;;;;;;;;;;5101017;27;40670;-72
2024/01/08 05:20:12;;;;;;;3.60;2.40;;;;;;;;;;5114759;27;40995;-72
2024/01/08 05:22:40;;;;;;;4.07;2.38;;;;;;;;;;5111592;27;42277;-73
2024/01/08 05:25:09;;;;;;;3.72;2.55;;;;;;;;;;5105451;27;41709;-72
2024/01/08 05:27:37;;;;;;;3.67;2.50;;;;;;;;;;5111348;27;42468;-72
2024/01/08 05:30:06;;;;;;;3.78;2.60;;;;;;;;;;5107609;27;40107;-72
2024/01/08 05:32:34;;;;;;;3.17;2.50;;;;;;;;;;5104685;27;42240;-73
2024/01/08 05:35:04;;;;;;;4.13;3.38;;;;;;;;;;5112005;27;43259;-73
2024/01/08 05:37:32;;;;;;;3.42;2.40;;;;;;;;;;5107922;27;40286;-73
2024/01/08 05:40:00;;;;;;;3.30;2.72;;;;;;;;;;5100207;27;42097;-73
2024/01/08 05:42:28;;;;;;;3.90;2.80;;;;;;;;;;5108212;27;43013;-73
2024/01/08 05:44:56;;;;;;;2.30;2.10;;;;;;;;;;5105786;27;40792;-72
2024/01/08 05:47:24;;;;;;;2.92;2.05;;;;;;;;;;5111140;27;42198;-72
2024/01/08 05:49:53;;;;;;;4.13;2.58;;;;;;;;;;5116224;27;41199;-72
2024/01/08 05:52:22;;;;;;;3.30;2.40;;;;;;;;;;5096312;27;42591;-72
2024/01/08 05:54:50;;;;;;;4.60;2.88;;;;;;;;;;5104331;27;42023;-73
2024/01/08 05:57:19;;;;;;;3.92;2.58;;;;;;;;;;5107522;27;40461;-72
2024/01/08 05:59:47;;;;;;;3.40;2.20;;;;;;;;;;5111381;27;41509;-73
2024/01/08 06:02:15;;;;;;;6.80;2.70;;;;;;;;;;5101244;27;43059;-72
2024/01/08 06:04:43;;;;;;;3.17;2.55;;;;;;;;;;5115630;27;40254;-72
2024/01/08 06:07:11;;;;;;;3.90;2.53;;;;;;;;;;5107887;27;41193;-73
2024/01/08 06:09:40;;;;;;;3.50;2.35;;;;;;;;;;5109965;27;41361;-73
2024/01/08 06:12:08;;;;;;;2.70;2.38;;;;;;;;;;5108987;27;42093;-73
2024/01/08 06:14:38;;;;;;;3.20;2.30;;;;;;;;;;5102676;27;41692;-74
2024/01/08 06:17:06;;;;;;;3.30;2.30;;;;;;;;;;5108714;27;39984;-74
2024/01/08 06:19:34;;;;;;;2.67;2.25;;;;;;;;;;5099805;27;42527;-75
2024/01/08 06:22:02;;;;;;;3.22;2.63;;;;;;;;;;5107783;27;42595;-75
2024/01/08 06:24:30;;;;;;;2.28;2.08;;;;;;;;;;5104160;27;40363;-74
2024/01/08 06:27:00;;;;;;;2.72;2.15;;;;;;;;;;5102514;27;42647;-75
2024/01/08 06:29:28;;;;;;;2.80;2.10;;;;;;;;;;5108628;27;41575;-74
2024/01/08 06:31:55;;;;;;;4.05;2.47;;;;;;;;;;5109024;27;42009;-74
2024/01/08 06:34:23;;;;;;;2.50;2.00;;;;;;;;;;5108540;27;42993;-71
2024/01/08 06:36:52;;;;;;;3.97;3.25;;;;;;;;;;5107247;27;39943;-72
2024/01/08 06:39:20;;;;;;;3.10;2.13;;;;;;;;;;5109052;27;40979;-70
2024/01/08 06:41:48;;;;;;;2.70;1.98;;;;;;;;;;5108708;27;41963;-71
2024/01/08 06:44:17;;;;;;;2.53;2.08;;;;;;;;;;5107291;27;40088;-72
2024/01/08 06:46:46;;;;;;;3.22;2.17;;;;;;;;;;5118530;27;41386;-70
2024/01/08 06:49:14;;;;;;;3.22;2.40;;;;;;;;;;5121289;27;42779;-70
2024/01/08 06:51:42;;;;;;;4.57;2.25;;;;;;;;;;5109214;27;40983;-70
2024/01/08 06:54:09;;;;;;;2.83;2.28;;;;;;;;;;5092626;27;43337;-70
2024/01/08 06:56:38;;;;;;;2.85;2.30;;;;;;;;;;5106955;27;41361;-70
2024/01/08 06:59:06;;;;;;;3.25;2.42;;;;;;;;;;5107990;27;41287;-70
2024/01/08 07:01:36;;;;;;;2.03;1.73;;;;;;;;;;5082387;28;40682;-70
2024/01/08 07:04:04;;;;;;;1.80;1.50;;;;;;;;;;5116961;27;41733;-74
2024/01/08 07:06:32;;;;;;;2.65;1.80;;;;;;;;;;5108997;27;41774;-74
2024/01/08 07:09:00;;;;;;;2.45;2.10;;;;;;;;;;5108350;27;41615;-74
2024/01/08 07:11:28;;;;;;;2.85;2.30;;;;;;;;;;5108629;27;40362;-74
2024/01/08 07:13:56;;;;;;;2.88;2.33;;;;;;;;;;5107785;27;41487;-74
2024/01/08 07:16:24;;;;;;;2.67;1.95;;;;;;;;;;5108333;27;41283;-74
2024/01/08 07:18:54;;;;;;;2.95;2.15;;;;;;;;;;5106471;27;41266;-74
2024/01/08 07:21:22;;;;;;;2.35;1.80;;;;;;;;;;5093965;27;41901;-74
2024/01/08 07:23:50;;;;;;;2.50;1.88;;;;;;;;;;5107945;27;40344;-74
2024/01/08 07:26:18;;;;;;;3.20;2.10;;;;;;;;;;5107156;27;42103;-74
2024/01/08 07:28:46;;;;;;;2.20;1.80;;;;;;;;;;5107636;27;42084;-74
2024/01/08 07:31:15;;;;;;;2.58;2.00;;;;;;;;;;5108411;27;39723;-74
2024/01/08 07:33:43;;;;;;;2.85;2.40;;;;;;;;;;5106119;28;42310;-73
2024/01/08 07:36:14;;;;;;;2.65;1.85;;;;;;;;;;5109594;27;39937;-73
2024/01/08 07:38:41;;;;;;;2.92;1.63;;;;;;;;;;5105709;27;43552;-73
2024/01/08 07:41:10;;;;;;;3.28;2.05;;;;;;;;;;5105774;28;41888;-73
2024/01/08 07:43:38;;;;;;;2.40;1.88;;;;;;;;;;5107376;27;39815;-73
2024/01/08 07:46:06;;;;;;;2.92;2.13;;;;;;;;;;5111670;27;42280;-73
2024/01/08 07:48:34;;;;;;;3.25;2.53;;;;;;;;;;5095935;27;41875;-73
2024/01/08 07:51:03;;;;;;;2.90;2.40;;;;;;;;;;5103540;27;40882;-74
2024/01/08 07:53:32;;;;;;;3.35;1.90;;;;;;;;;;5109102;27;40967;-74
2024/01/08 07:56:00;;;;;;;2.67;2.08;;;;;;;;;;5113985;27;42101;-73
2024/01/08 07:58:28;;;;;;;2.22;1.83;;;;;;;;;;5115139;27;42651;-73
2024/01/08 08:01:07;;;;;;;2.92;2.05;;;;;;;;;;5103169;27;41724;-73
2024/01/08 08:03:35;;;;;;;2.60;1.88;;;;;;;;;;5091216;27;41308;-73
2024/01/08 08:06:04;;;;;;;3.70;2.10;;;;;;;;;;5100622;27;41608;-73
2024/01/08 08:08:34;;;;;;;2.38;1.83;;;;;;;;;;5096876;27;42293;-73
2024/01/08 08:11:03;;;;;;;2.83;1.90;;;;;;;;;;5093729;27;40373;-73
2024/01/08 08:13:31;;;;;;;3.95;1.98;;;;;;;;;;5104806;27;41750;-73
2024/01/08 08:16:00;;;;;;;2.67;1.90;;;;;;;;;;5099606;27;41996;-73
2024/01/08 08:18:28;;;;;;;2.53;2.17;;;;;;;;;;5099709;27;41302;-73
2024/01/08 08:20:57;;;;;;;1.63;1.40;;;;;;;;;;5096154;27;42331;-73
2024/01/08 08:23:25;;;;;;;2.17;1.98;;;;;;;;;;5095203;27;41250;-73
2024/01/08 08:25:54;;;;;;;1.92;1.48;;;;;;;;;;5100139;27;41403;-73
2024/01/08 08:28:22;;;;;;;1.52;1.33;;;;;;;;;;5103505;28;40580;-73
2024/01/08 08:30:51;;;;;;;2.35;1.65;;;;;;;;;;5107673;27;40870;-73
2024/01/08 08:33:19;;;;;;;1.95;1.75;;;;;;;;;;5108697;27;41777;-74
2024/01/08 08:35:47;;;;;;;2.05;1.73;;;;;;;;;;5105768;27;41845;-73
2024/01/08 08:38:16;;;;;;;2.70;1.90;;;;;;;;;;5119785;27;40625;-73
2024/01/08 08:40:44;;;;;;;3.20;2.22;;;;;;;;;;5118997;27;41619;-73
2024/01/08 08:43:14;;;;;;;2.28;2.00;;;;;;;;;;5108479;27;41285;-73
2024/01/08 08:45:42;;;;;;;2.85;2.00;;;;;;;;;;5106361;27;41631;-73
2024/01/08 08:48:10;;;;;;;2.47;2.00;;;;;;;;;;5101367;27;42133;-73
2024/01/08 08:50:38;;;;;;;2.90;2.20;;;;;;;;;;5102045;27;41293;-74
2024/01/08 08:53:06;;;;;;;3.45;2.10;;;;;;;;;;5097821;27;41660;-74
2024/01/08 08:55:34;;;;;;;2.10;1.90;;;;;;;;;;5123689;27;42165;-73
2024/01/08 08:58:02;;;;;;;1.98;1.40;;;;;;;;;;5123545;27;41228;-73
2024/01/08 09:00:31;;;;;;;2.83;1.90;;;;;;;;;;5123834;27;42624;-73
2024/01/08 09:03:02;;;;;;;2.83;1.77;;;;;;;;;;5108721;27;33369;-73
2024/01/08 09:05:31;;;;;;;4.63;2.28;;;;;;;;;;5097617;27;42047;-73
2024/01/08 09:08:07;;;;;;;7.97;2.55;;;;;;;;;;5103780;28;42271;-74
2024/01/08 09:10:35;;;;;;;4.18;2.20;;;;;;;;;;5109896;27;41032;-71
2024/01/08 09:13:03;;;;;;;4.97;2.05;;;;;;;;;;5105053;28;43419;-71
2024/01/08 09:15:32;;;;;;;3.63;2.28;;;;;;;;;;5106577;27;42044;-71
2024/01/08 09:18:00;;;;;;;7.32;1.90;;;;;;;;;;5107383;27;40266;-70
2024/01/08 09:20:29;;;;;;;3.83;2.00;;;;;;;;;;5107919;27;41539;-71
2024/01/08 09:22:57;;;;;;;5.35;2.38;;;;;;;;;;5107254;27;41510;-72
2024/01/08 09:25:25;;;;;;;6.28;2.15;;;;;;;;;;5107199;27;41811;-72
2024/01/08 09:27:53;;;;;;;4.80;2.28;;;;;;;;;;5106462;27;43225;-71
2024/01/08 09:30:21;;;;;;;6.35;2.13;;;;;;;;;;5106000;28;41373;-72
2024/01/08 09:32:51;;;;;;;3.83;1.90;;;;;;;;;;5099099;27;42586;-73
2024/01/08 09:35:19;;;;;;;3.03;2.15;;;;;;;;;;5102618;28;42780;-73
2024/01/08 09:37:50;;;;;;;3.47;2.33;;;;;;;;;;5105867;28;41509;-74
2024/01/08 09:40:18;;;;;;;3.47;2.33;;;;;;;;;;5101028;27;42609;-71
2024/01/08 09:42:46;;;;;;;5.68;1.80;;;;;;;;;;5101310;28;42623;-71
2024/01/08 09:45:17;;;;;;;4.38;2.25;;;;;;;;;;5107044;27;40989;-71
2024/01/08 09:47:45;;;;;;;2.97;1.83;;;;;;;;;;5110389;27;42252;-71
2024/01/08 09:50:14;;;;;;;2.72;2.10;;;;;;;;;;5109676;27;40277;-72
2024/01/08 09:52:43;;;;;;;3.45;1.90;;;;;;;;;;5109199;27;41046;-72
2024/01/08 09:55:11;;;;;;;4.55;1.73;;;;;;;;;;5109095;27;42116;-70
2024/01/08 09:57:39;;;;;;;6.00;2.42;;;;;;;;;;5092416;28;41914;-71
2024/01/08 10:00:09;;;;;;;2.10;1.80;;;;;;;;;;5089708;28;42176;-71
2024/01/08 10:02:40;;;;;;;3.50;2.25;;;;;;;;;;5086469;28;42847;-71
2024/01/08 10:05:08;;;;;;;15.55;2.50;;;;;;;;;;5087793;28;40345;-69
2024/01/08 10:07:38;;;;;;;3.58;2.00;;;;;;;;;;5088877;28;42071;-69
2024/01/08 10:10:07;;;;;;;3.53;2.10;;;;;;;;;;5088178;28;40337;-70
2024/01/08 10:12:35;;;;;;;3.05;1.92;;;;;;;;;;5099681;28;41098;-70
2024/01/08 10:15:03;;;;;;;2.80;1.92;;;;;;;;;;5087153;28;43627;-68
2024/01/08 10:17:31;;;;;;;3.25;2.20;;;;;;;;;;5087904;28;39784;-69
2024/01/08 10:20:05;;;;;;;3.97;2.13;;;;;;;;;;5088227;28;41250;-70
2024/01/08 10:22:33;;;;;;;4.07;1.73;;;;;;;;;;5082780;28;43131;-70
2024/01/08 10:25:03;;;;;;;4.53;2.00;;;;;;;;;;5088842;28;40598;-70
2024/01/08 10:27:31;;;;;;;5.13;2.83;;;;;;;;;;5087953;28;41896;-70
2024/01/08 10:29:59;;;;;;;3.88;1.80;;;;;;;;;;5085551;28;42343;-70
2024/01/08 10:32:27;;;;;;;3.22;1.67;;;;;;;;;;5085876;28;41348;-70
2024/01/08 10:34:56;;;;;;;3.58;1.92;;;;;;;;;;5088732;28;42991;-70
2024/01/08 10:37:24;;;;;;;2.85;2.22;;;;;;;;;;5069865;28;39031;-70
2024/01/08 10:39:52;;;;;;;3.95;2.10;;;;;;;;;;5085924;28;41185;-71
2024/01/08 10:42:21;;;;;;;5.30;2.03;;;;;;;;;;5082934;28;42083;-72
2024/01/08 10:44:49;;;;;;;3.53;1.83;;;;;;;;;;5071481;28;41428;-72
2024/01/08 10:47:19;;;;;;;4.93;1.85;;;;;;;;;;5096894;28;42105;-72
2024/01/08 10:49:48;;;;;;;3.83;2.20;;;;;;;;;;5096330;28;41962;-70
2024/01/08 10:52:18;;;;;;;2.80;1.80;;;;;;;;;;5087364;28;41048;-72
2024/01/08 10:54:54;;;;;;;4.53;1.92;;;;;;;;;;5088219;28;41954;-72
2024/01/08 10:57:26;;;;;;;2.10;1.90;;;;;;;;;;5102634;27;41121;-71
2024/01/08 10:59:56;;;;;;;3.78;1.90;;;;;;;;;;5101010;27;41267;-70
2024/01/08 11:02:25;;;;;;;3.72;1.90;;;;;;;;;;5107178;27;42070;-70
2024/01/08 11:04:58;;;;;;;3.95;1.65;;;;;;;;;;5103664;28;41244;-69
2024/01/08 11:07:27;;;;;;;3.88;1.67;;;;;;;;;;5109248;27;20346;-70
2024/01/08 11:10:03;;;;;;;2.80;1.88;;;;;;;;;;5108207;28;41837;-70
2024/01/08 11:12:32;;;;;;;4.50;1.80;;;;;;;;;;5105626;28;41307;-69
2024/01/08 11:15:01;;;;;;;4.13;1.70;;;;;;;;;;5097890;27;42177;-70
2024/01/08 11:17:29;;;;;;;2.80;1.70;;;;;;;;;;5106739;27;39880;-69
2024/01/08 11:19:59;;;;;;;6.35;1.80;;;;;;;;;;5108550;27;41860;-69
2024/01/08 11:22:27;;;;;;;4.55;2.25;;;;;;;;;;5108742;27;41565;-69
2024/01/08 11:24:57;;;;;;;3.70;1.67;;;;;;;;;;5107878;27;41471;-69
2024/01/08 11:27:25;;;;;;;2.42;1.50;;;;;;;;;;5108206;27;41665;-69
2024/01/08 11:29:58;;;;;;;3.20;2.08;;;;;;;;;;5108414;27;42963;-70
2024/01/08 11:32:50;;;;;;;3.15;1.60;;;;;;;;;;5090403;28;41914;-69
2024/01/08 11:35:18;;;;;;;2.05;1.70;;;;;;;;;;5106678;27;41200;-70
2024/01/08 11:37:46;;;;;;;2.20;1.63;;;;;;;;;;5107368;27;42104;-69
2024/01/08 11:40:15;;;;;;;5.47;1.67;;;;;;;;;;5104895;27;41715;-69
2024/01/08 11:42:44;;;;;;;5.93;1.98;;;;;;;;;;5104388;27;41502;-70
2024/01/08 11:45:14;;;;;;;4.05;1.58;;;;;;;;;;5104523;27;40628;-72
2024/01/08 11:47:42;;;;;;;2.55;1.80;;;;;;;;;;5107898;28;41914;-69
2024/01/08 11:50:10;;;;;;;4.93;1.90;;;;;;;;;;5100156;27;41304;-73
2024/01/08 11:52:39;;;;;;;5.28;1.83;;;;;;;;;;5093216;27;40582;-69
2024/01/08 11:55:07;;;;;;;2.30;1.67;;;;;;;;;;5107294;27;42424;-70
2024/01/08 11:57:36;;;;;;;3.10;1.77;;;;;;;;;;5083646;27;43690;-69
2024/01/08 12:00:15;;;;;;;2.72;1.60;;;;;;;;;;5071839;28;42644;-69
2024/01/08 12:02:43;;;;;;;5.88;1.90;;;;;;;;;;5074346;28;42082;-70
2024/01/08 12:05:12;;;;;;;5.05;1.90;;;;;;;;;;5080664;28;41054;-71
2024/01/08 12:07:41;;;;;;;4.22;1.92;;;;;;;;;;5088962;28;42479;-70
2024/01/08 12:10:12;;;;;;;2.70;1.80;;;;;;;;;;5088031;28;41795;-69
2024/01/08 12:12:40;;;;;;;3.03;1.90;;;;;;;;;;5086255;28;40148;-69
2024/01/08 12:15:09;;;;;;;3.95;1.90;;;;;;;;;;5069735;28;40647;-70
2024/01/08 12:17:38;;;;;;;4.47;2.20;;;;;;;;;;5087350;28;41048;-69
2024/01/08 12:20:07;;;;;;;4.60;2.10;;;;;;;;;;5086784;28;40983;-70
2024/01/08 12:22:35;;;;;;;2.20;1.77;;;;;;;;;;5087413;28;42637;-69
2024/01/08 12:25:04;;;;;;;2.85;2.00;;;;;;;;;;5090778;28;40140;-69
2024/01/08 12:27:32;;;;;;;2.42;2.08;;;;;;;;;;5085867;28;41989;-71
2024/01/08 12:30:01;;;;;;;5.68;1.98;;;;;;;;;;5087177;28;43172;-70
2024/01/08 12:32:29;;;;;;;4.63;1.85;;;;;;;;;;5087150;28;40208;-72
2024/01/08 12:35:00;;;;;;;2.90;1.88;;;;;;;;;;5085823;28;41806;-68
2024/01/08 12:37:32;;;;;;;6.45;2.10;;;;;;;;;;5086938;28;42172;-69
2024/01/08 12:40:01;;;;;;;8.00;1.70;;;;;;;;;;5081999;28;41363;-68
2024/01/08 12:42:29;;;;;;;5.78;1.92;;;;;;;;;;5075042;28;41786;-68
2024/01/08 12:44:57;;;;;;;3.53;1.60;;;;;;;;;;5086618;28;40338;-69
2024/01/08 12:47:25;;;;;;;6.60;1.80;;;;;;;;;;5085309;28;41829;-68
2024/01/08 12:49:54;;;;;;;4.35;2.00;;;;;;;;;;5084354;28;42472;-68
2024/01/08 12:52:23;;;;;;;3.88;1.83;;;;;;;;;;5085864;28;41241;-69
2024/01/08 12:54:51;;;;;;;3.03;1.98;;;;;;;;;;5085431;28;41705;-68
2024/01/08 12:57:19;;;;;;;4.25;2.40;;;;;;;;;;5114913;27;42071;-69
2024/01/08 12:59:53;;;;;;;4.47;2.30;;;;;;;;;;5103865;27;40000;-68
2024/01/08 13:02:22;;;;;;;2.15;1.73;;;;;;;;;;5102761;27;41347;-68
2024/01/08 13:04:50;;;;;;;4.95;2.20;;;;;;;;;;5116524;27;41170;-68
2024/01/08 13:07:18;;;;;;;4.18;1.80;;;;;;;;;;5094383;27;41168;-69
2024/01/08 13:09:48;;;;;;;3.45;1.83;;;;;;;;;;5097012;27;42257;-69
2024/01/08 13:12:16;;;;;;;3.78;2.15;;;;;;;;;;5103104;27;40033;-68
2024/01/08 13:14:44;;;;;;;5.30;2.30;;;;;;;;;;5105056;27;41947;-68
2024/01/08 13:17:12;;;;;;;6.50;2.10;;;;;;;;;;5102192;28;42318;-70
2024/01/08 13:19:41;;;;;;;8.85;2.58;;;;;;;;;;5100069;27;40380;-73
2024/01/08 13:22:10;;;;;;;6.00;2.30;;;;;;;;;;5109957;27;42616;-71
2024/01/08 13:24:38;;;;;;;7.40;2.50;;;;;;;;;;5113667;27;43093;-68
2024/01/08 13:27:13;;;;;;;5.78;2.30;;;;;;;;;;5108687;27;41114;-70
2024/01/08 13:29:41;;;;;;;6.32;2.30;;;;;;;;;;5101539;27;42290;-70
2024/01/08 13:32:10;;;;;;;4.80;2.22;;;;;;;;;;5115980;27;40864;-68
2024/01/08 13:34:39;;;;;;;4.93;2.15;;;;;;;;;;5105552;27;42577;-70
2024/01/08 13:37:07;;;;;;;3.70;2.30;;;;;;;;;;5109520;27;42642;-70
2024/01/08 13:39:35;;;;;;;4.50;2.55;;;;;;;;;;5109417;27;40343;-69
2024/01/08 13:42:03;;;;;;;2.95;2.05;;;;;;;;;;5108705;27;42244;-70
2024/01/08 13:44:33;;;;;;;7.25;2.20;;;;;;;;;;5109060;27;41624;-70
2024/01/08 13:47:01;;;;;;;7.30;2.10;;;;;;;;;;5110141;27;40327;-72
2024/01/08 13:49:29;;;;;;;5.68;2.25;;;;;;;;;;5110360;27;43152;-69
2024/01/08 13:51:57;;;;;;;3.05;2.22;;;;;;;;;;5109044;27;40312;-71
2024/01/08 13:54:25;;;;;;;4.28;2.25;;;;;;;;;;5110035;27;41617;-68
2024/01/08 13:56:53;;;;;;;3.05;2.22;;;;;;;;;;5095321;27;42104;-69
2024/01/08 13:59:23;;;;;;;5.90;2.70;;;;;;;;;;5086456;28;40374;-70
2024/01/08 14:01:54;;;;;;;2.63;2.42;;;;;;;;;;5082120;28;42265;-70
2024/01/08 14:04:23;;;;;;;4.72;2.58;;;;;;;;;;5068741;28;40232;-69
2024/01/08 14:06:51;;;;;;;6.80;2.90;;;;;;;;;;5079864;28;42196;-66
2024/01/08 14:09:19;;;;;;;3.85;2.97;;;;;;;;;;5098596;28;42627;-67
2024/01/08 14:11:48;;;;;;;7.05;4.30;;;;;;;;;;5096701;28;40313;-68
2024/01/08 14:14:16;;;;;;;7.35;3.50;;;;;;;;;;5088224;28;41824;-68
2024/01/08 14:16:45;;;;;;;6.72;3.20;;;;;;;;;;5093478;28;42080;-68
2024/01/08 14:19:15;;;;;;;4.30;2.45;;;;;;;;;;5073317;28;41382;-68
2024/01/08 14:21:44;;;;;;;5.25;2.63;;;;;;;;;;5079202;28;42933;-68
2024/01/08 14:24:12;;;;;;;4.00;2.67;;;;;;;;;;5087022;28;42769;-68
2024/01/08 14:26:40;;;;;;;4.25;2.30;;;;;;;;;;5069530;28;41033;-67
2024/01/08 14:29:08;;;;;;;4.30;2.60;;;;;;;;;;5082441;28;41349;-67
2024/01/08 14:31:36;;;;;;;4.63;2.45;;;;;;;;;;5088632;28;41964;-68
2024/01/08 14:34:04;;;;;;;3.45;2.60;;;;;;;;;;5082457;28;41453;-67
2024/01/08 14:36:34;;;;;;;2.90;2.60;;;;;;;;;;5074610;28;42053;-68
2024/01/08 14:39:04;;;;;;;3.45;2.90;;;;;;;;;;5090929;28;40025;-67
2024/01/08 14:41:32;;;;;;;5.78;2.95;;;;;;;;;;5089166;28;41752;-67
2024/01/08 14:44:00;;;;;;;3.30;2.30;;;;;;;;;;5083224;28;42668;-68
2024/01/08 14:46:29;;;;;;;4.93;2.55;;;;;;;;;;5093215;28;40537;-67
2024/01/08 14:48:57;;;;;;;3.35;2.60;;;;;;;;;;5079496;28;42542;-68
2024/01/08 14:51:25;;;;;;;3.70;2.63;;;;;;;;;;5077709;28;42309;-68